sensor_id;sensor_type;location;lat;lon;timestamp;P1;durP1;ratioP1;P2;durP2;ratioP2
41925;SDS011;27615;51.826;5.692;2022-11-20T00:01:43;10.18;;;5.90;;
41925;SDS011;27615;51.826;5.692;2022-11-20T00:04:10;9.90;;;6.15;;
41925;SDS011;27615;51.826;5.692;2022-11-20T00:06:36;9.88;;;5.55;;
41925;SDS011;27615;51.826;5.692;2022-11-20T00:09:02;11.45;;;6.05;;
41925;SDS011;27615;51.826;5.692;2022-11-20T00:11:28;10.18;;;5.97;;
41925;SDS011;27615;51.826;5.692;2022-11-20T00:13:55;11.27;;;5.95;;
41925;SDS011;27615;51.826;5.692;2022-11-20T00:16:23;9.57;;;5.65;;
41925;SDS011;27615;51.826;5.692;2022-11-20T00:18:50;10.20;;;5.97;;
41925;SDS011;27615;51.826;5.692;2022-11-20T00:21:17;10.52;;;5.70;;
41925;SDS011;27615;51.826;5.692;2022-11-20T00:23:44;9.15;;;5.90;;
41925;SDS011;27615;51.826;5.692;2022-11-20T00:26:11;9.75;;;6.43;;
41925;SDS011;27615;51.826;5.692;2022-11-20T00:28:38;10.70;;;6.03;;
41925;SDS011;27615;51.826;5.692;2022-11-20T00:31:09;11.77;;;7.22;;
41925;SDS011;27615;51.826;5.692;2022-11-20T00:33:36;10.50;;;6.00;;
41925;SDS011;27615;51.826;5.692;2022-11-20T00:36:02;9.02;;;5.53;;
41925;SDS011;27615;51.826;5.692;2022-11-20T00:38:30;10.43;;;6.22;;
41925;SDS011;27615;51.826;5.692;2022-11-20T00:40:57;11.10;;;6.20;;
41925;SDS011;27615;51.826;5.692;2022-11-20T00:43:23;9.77;;;6.25;;
41925;SDS011;27615;51.826;5.692;2022-11-20T00:45:49;11.50;;;6.30;;
41925;SDS011;27615;51.826;5.692;2022-11-20T00:48:15;10.73;;;5.97;;
41925;SDS011;27615;51.826;5.692;2022-11-20T00:50:41;10.95;;;6.00;;
41925;SDS011;27615;51.826;5.692;2022-11-20T00:53:06;11.07;;;5.95;;
41925;SDS011;27615;51.826;5.692;2022-11-20T00:55:32;10.82;;;7.05;;
41925;SDS011;27615;51.826;5.692;2022-11-20T00:57:57;11.98;;;6.18;;
41925;SDS011;27615;51.826;5.692;2022-11-20T01:00:23;10.43;;;6.03;;
41925;SDS011;27615;51.826;5.692;2022-11-20T01:02:48;10.23;;;5.90;;
41925;SDS011;27615;51.826;5.692;2022-11-20T01:05:14;11.02;;;6.55;;
41925;SDS011;27615;51.826;5.692;2022-11-20T01:07:39;11.05;;;6.78;;
41925;SDS011;27615;51.826;5.692;2022-11-20T01:10:05;12.90;;;6.55;;
41925;SDS011;27615;51.826;5.692;2022-11-20T01:12:31;10.57;;;6.05;;
41925;SDS011;27615;51.826;5.692;2022-11-20T01:14:56;11.40;;;6.45;;
41925;SDS011;27615;51.826;5.692;2022-11-20T01:17:22;10.75;;;6.03;;
41925;SDS011;27615;51.826;5.692;2022-11-20T01:19:48;9.63;;;6.07;;
41925;SDS011;27615;51.826;5.692;2022-11-20T01:22:15;8.73;;;5.97;;
41925;SDS011;27615;51.826;5.692;2022-11-20T01:24:40;11.70;;;7.13;;
41925;SDS011;27615;51.826;5.692;2022-11-20T01:27:06;10.88;;;5.80;;
41925;SDS011;27615;51.826;5.692;2022-11-20T01:29:31;11.73;;;6.85;;
41925;SDS011;27615;51.826;5.692;2022-11-20T01:31:57;11.35;;;6.35;;
41925;SDS011;27615;51.826;5.692;2022-11-20T01:34:22;10.85;;;6.18;;
41925;SDS011;27615;51.826;5.692;2022-11-20T01:36:48;15.13;;;8.50;;
41925;SDS011;27615;51.826;5.692;2022-11-20T01:39:16;11.90;;;6.88;;
41925;SDS011;27615;51.826;5.692;2022-11-20T01:41:44;12.07;;;6.90;;
41925;SDS011;27615;51.826;5.692;2022-11-20T01:47:23;12.10;;;6.97;;
41925;SDS011;27615;51.826;5.692;2022-11-20T01:49:58;12.23;;;7.13;;
41925;SDS011;27615;51.826;5.692;2022-11-20T01:52:39;11.65;;;7.22;;
41925;SDS011;27615;51.826;5.692;2022-11-20T01:55:15;11.70;;;6.40;;
41925;SDS011;27615;51.826;5.692;2022-11-20T01:57:44;13.13;;;7.70;;
41925;SDS011;27615;51.826;5.692;2022-11-20T02:00:13;11.77;;;7.15;;
41925;SDS011;27615;51.826;5.692;2022-11-20T02:02:41;12.52;;;7.25;;
41925;SDS011;27615;51.826;5.692;2022-11-20T02:05:22;13.25;;;7.82;;
41925;SDS011;27615;51.826;5.692;2022-11-20T02:07:56;12.23;;;7.63;;
41925;SDS011;27615;51.826;5.692;2022-11-20T02:10:23;14.35;;;8.02;;
41925;SDS011;27615;51.826;5.692;2022-11-20T02:12:50;12.48;;;7.38;;
41925;SDS011;27615;51.826;5.692;2022-11-20T02:15:34;14.13;;;7.78;;
41925;SDS011;27615;51.826;5.692;2022-11-20T02:18:00;15.95;;;8.60;;
41925;SDS011;27615;51.826;5.692;2022-11-20T02:20:26;16.80;;;8.45;;
41925;SDS011;27615;51.826;5.692;2022-11-20T02:22:57;13.32;;;8.63;;
41925;SDS011;27615;51.826;5.692;2022-11-20T02:25:26;16.00;;;7.95;;
41925;SDS011;27615;51.826;5.692;2022-11-20T02:27:55;10.88;;;7.05;;
41925;SDS011;27615;51.826;5.692;2022-11-20T02:30:20;12.00;;;7.03;;
41925;SDS011;27615;51.826;5.692;2022-11-20T02:32:46;12.65;;;7.07;;
41925;SDS011;27615;51.826;5.692;2022-11-20T02:37:43;11.93;;;7.03;;
41925;SDS011;27615;51.826;5.692;2022-11-20T02:40:12;11.88;;;6.65;;
41925;SDS011;27615;51.826;5.692;2022-11-20T02:42:38;13.13;;;6.95;;
41925;SDS011;27615;51.826;5.692;2022-11-20T02:45:04;12.75;;;7.07;;
41925;SDS011;27615;51.826;5.692;2022-11-20T02:47:30;12.10;;;6.70;;
41925;SDS011;27615;51.826;5.692;2022-11-20T02:49:56;11.85;;;7.15;;
41925;SDS011;27615;51.826;5.692;2022-11-20T02:52:21;13.90;;;7.28;;
41925;SDS011;27615;51.826;5.692;2022-11-20T02:54:47;13.65;;;8.18;;
41925;SDS011;27615;51.826;5.692;2022-11-20T02:57:12;13.38;;;7.97;;
41925;SDS011;27615;51.826;5.692;2022-11-20T02:59:38;11.13;;;7.20;;
41925;SDS011;27615;51.826;5.692;2022-11-20T03:02:03;12.68;;;6.85;;
41925;SDS011;27615;51.826;5.692;2022-11-20T03:04:29;10.63;;;6.30;;
41925;SDS011;27615;51.826;5.692;2022-11-20T03:06:55;12.10;;;6.80;;
41925;SDS011;27615;51.826;5.692;2022-11-20T03:09:21;10.68;;;6.70;;
41925;SDS011;27615;51.826;5.692;2022-11-20T03:11:46;12.98;;;8.25;;
41925;SDS011;27615;51.826;5.692;2022-11-20T03:14:12;12.98;;;7.47;;
41925;SDS011;27615;51.826;5.692;2022-11-20T03:16:38;15.38;;;8.48;;
41925;SDS011;27615;51.826;5.692;2022-11-20T03:19:03;16.85;;;9.40;;
41925;SDS011;27615;51.826;5.692;2022-11-20T03:21:29;16.02;;;8.63;;
41925;SDS011;27615;51.826;5.692;2022-11-20T03:23:54;13.95;;;8.23;;
41925;SDS011;27615;51.826;5.692;2022-11-20T03:26:21;10.98;;;7.45;;
41925;SDS011;27615;51.826;5.692;2022-11-20T03:31:18;10.85;;;6.75;;
41925;SDS011;27615;51.826;5.692;2022-11-20T03:33:45;11.77;;;6.38;;
41925;SDS011;27615;51.826;5.692;2022-11-20T03:36:12;12.23;;;7.30;;
41925;SDS011;27615;51.826;5.692;2022-11-20T03:38:39;13.10;;;7.20;;
41925;SDS011;27615;51.826;5.692;2022-11-20T03:41:09;12.75;;;6.80;;
41925;SDS011;27615;51.826;5.692;2022-11-20T03:44:03;11.63;;;6.75;;
41925;SDS011;27615;51.826;5.692;2022-11-20T03:46:30;10.07;;;6.60;;
41925;SDS011;27615;51.826;5.692;2022-11-20T03:48:56;10.75;;;6.43;;
41925;SDS011;27615;51.826;5.692;2022-11-20T03:51:23;12.15;;;6.95;;
41925;SDS011;27615;51.826;5.692;2022-11-20T03:53:50;11.45;;;6.85;;
41925;SDS011;27615;51.826;5.692;2022-11-20T03:56:19;10.73;;;6.47;;
41925;SDS011;27615;51.826;5.692;2022-11-20T03:58:47;12.57;;;6.65;;
41925;SDS011;27615;51.826;5.692;2022-11-20T04:01:17;12.38;;;7.22;;
41925;SDS011;27615;51.826;5.692;2022-11-20T04:03:44;10.25;;;6.22;;
41925;SDS011;27615;51.826;5.692;2022-11-20T04:08:37;11.88;;;6.65;;
41925;SDS011;27615;51.826;5.692;2022-11-20T04:13:35;10.40;;;6.43;;
41925;SDS011;27615;51.826;5.692;2022-11-20T04:16:01;11.07;;;6.72;;
41925;SDS011;27615;51.826;5.692;2022-11-20T04:18:27;11.60;;;6.90;;
41925;SDS011;27615;51.826;5.692;2022-11-20T04:20:52;10.10;;;6.43;;
41925;SDS011;27615;51.826;5.692;2022-11-20T04:23:18;9.73;;;5.78;;
41925;SDS011;27615;51.826;5.692;2022-11-20T04:25:43;11.50;;;7.13;;
41925;SDS011;27615;51.826;5.692;2022-11-20T04:28:09;10.32;;;6.45;;
41925;SDS011;27615;51.826;5.692;2022-11-20T04:30:34;10.77;;;5.95;;
41925;SDS011;27615;51.826;5.692;2022-11-20T04:33:00;12.50;;;7.13;;
41925;SDS011;27615;51.826;5.692;2022-11-20T04:35:25;12.38;;;6.65;;
41925;SDS011;27615;51.826;5.692;2022-11-20T04:37:51;11.40;;;6.63;;
41925;SDS011;27615;51.826;5.692;2022-11-20T04:40:17;10.50;;;7.25;;
41925;SDS011;27615;51.826;5.692;2022-11-20T04:42:42;11.40;;;6.60;;
41925;SDS011;27615;51.826;5.692;2022-11-20T04:45:08;11.00;;;6.32;;
41925;SDS011;27615;51.826;5.692;2022-11-20T04:47:34;11.07;;;6.80;;
41925;SDS011;27615;51.826;5.692;2022-11-20T04:49:59;10.27;;;6.40;;
41925;SDS011;27615;51.826;5.692;2022-11-20T04:52:25;13.05;;;6.95;;
41925;SDS011;27615;51.826;5.692;2022-11-20T04:54:50;11.55;;;6.88;;
41925;SDS011;27615;51.826;5.692;2022-11-20T04:57:17;9.23;;;6.05;;
41925;SDS011;27615;51.826;5.692;2022-11-20T04:59:43;13.05;;;7.18;;
41925;SDS011;27615;51.826;5.692;2022-11-20T05:02:09;15.25;;;7.90;;
41925;SDS011;27615;51.826;5.692;2022-11-20T05:04:35;14.07;;;7.82;;
41925;SDS011;27615;51.826;5.692;2022-11-20T05:07:00;11.60;;;7.55;;
41925;SDS011;27615;51.826;5.692;2022-11-20T05:09:26;12.55;;;7.75;;
41925;SDS011;27615;51.826;5.692;2022-11-20T05:11:52;13.25;;;7.88;;
41925;SDS011;27615;51.826;5.692;2022-11-20T05:14:17;12.48;;;7.25;;
41925;SDS011;27615;51.826;5.692;2022-11-20T05:16:43;13.60;;;7.72;;
41925;SDS011;27615;51.826;5.692;2022-11-20T05:19:08;11.48;;;7.28;;
41925;SDS011;27615;51.826;5.692;2022-11-20T05:21:34;10.45;;;6.70;;
41925;SDS011;27615;51.826;5.692;2022-11-20T05:23:59;10.55;;;7.20;;
41925;SDS011;27615;51.826;5.692;2022-11-20T05:26:25;10.57;;;6.50;;
41925;SDS011;27615;51.826;5.692;2022-11-20T05:28:50;11.95;;;7.25;;
41925;SDS011;27615;51.826;5.692;2022-11-20T05:31:17;9.68;;;5.43;;
41925;SDS011;27615;51.826;5.692;2022-11-20T05:33:47;10.40;;;5.78;;
41925;SDS011;27615;51.826;5.692;2022-11-20T05:36:14;12.55;;;7.18;;
41925;SDS011;27615;51.826;5.692;2022-11-20T05:38:40;11.25;;;6.47;;
41925;SDS011;27615;51.826;5.692;2022-11-20T05:41:14;12.23;;;7.60;;
41925;SDS011;27615;51.826;5.692;2022-11-20T05:43:41;14.02;;;7.47;;
41925;SDS011;27615;51.826;5.692;2022-11-20T05:46:09;11.80;;;7.20;;
41925;SDS011;27615;51.826;5.692;2022-11-20T05:48:37;13.18;;;7.28;;
41925;SDS011;27615;51.826;5.692;2022-11-20T05:51:05;10.68;;;6.80;;
41925;SDS011;27615;51.826;5.692;2022-11-20T05:53:34;10.25;;;6.30;;
41925;SDS011;27615;51.826;5.692;2022-11-20T05:56:01;11.48;;;6.68;;
41925;SDS011;27615;51.826;5.692;2022-11-20T05:58:28;12.25;;;6.55;;
41925;SDS011;27615;51.826;5.692;2022-11-20T06:00:54;13.55;;;7.75;;
41925;SDS011;27615;51.826;5.692;2022-11-20T06:03:27;11.85;;;7.97;;
41925;SDS011;27615;51.826;5.692;2022-11-20T06:05:53;12.15;;;7.85;;
41925;SDS011;27615;51.826;5.692;2022-11-20T06:08:18;11.98;;;6.95;;
41925;SDS011;27615;51.826;5.692;2022-11-20T06:10:44;11.85;;;6.57;;
41925;SDS011;27615;51.826;5.692;2022-11-20T06:13:09;11.45;;;6.75;;
41925;SDS011;27615;51.826;5.692;2022-11-20T06:15:35;11.60;;;7.47;;
41925;SDS011;27615;51.826;5.692;2022-11-20T06:18:00;12.05;;;7.18;;
41925;SDS011;27615;51.826;5.692;2022-11-20T06:20:26;10.25;;;6.38;;
41925;SDS011;27615;51.826;5.692;2022-11-20T06:22:51;11.10;;;6.93;;
41925;SDS011;27615;51.826;5.692;2022-11-20T06:25:17;13.38;;;8.52;;
41925;SDS011;27615;51.826;5.692;2022-11-20T06:27:42;13.00;;;7.90;;
41925;SDS011;27615;51.826;5.692;2022-11-20T06:30:08;13.98;;;8.15;;
41925;SDS011;27615;51.826;5.692;2022-11-20T06:32:34;12.68;;;7.43;;
41925;SDS011;27615;51.826;5.692;2022-11-20T06:34:59;13.43;;;7.57;;
41925;SDS011;27615;51.826;5.692;2022-11-20T06:37:25;11.82;;;6.95;;
41925;SDS011;27615;51.826;5.692;2022-11-20T06:39:50;11.73;;;7.35;;
41925;SDS011;27615;51.826;5.692;2022-11-20T06:42:16;12.55;;;7.70;;
41925;SDS011;27615;51.826;5.692;2022-11-20T06:44:41;12.13;;;7.47;;
41925;SDS011;27615;51.826;5.692;2022-11-20T06:47:07;11.60;;;6.82;;
41925;SDS011;27615;51.826;5.692;2022-11-20T06:49:33;14.43;;;7.53;;
41925;SDS011;27615;51.826;5.692;2022-11-20T06:51:59;11.95;;;7.20;;
41925;SDS011;27615;51.826;5.692;2022-11-20T06:54:24;11.75;;;7.78;;
41925;SDS011;27615;51.826;5.692;2022-11-20T06:56:50;14.18;;;7.25;;
41925;SDS011;27615;51.826;5.692;2022-11-20T06:59:15;12.02;;;7.10;;
41925;SDS011;27615;51.826;5.692;2022-11-20T07:01:41;12.20;;;6.82;;
41925;SDS011;27615;51.826;5.692;2022-11-20T07:04:06;13.30;;;7.15;;
41925;SDS011;27615;51.826;5.692;2022-11-20T07:06:32;12.48;;;7.45;;
41925;SDS011;27615;51.826;5.692;2022-11-20T07:08:57;12.82;;;7.35;;
41925;SDS011;27615;51.826;5.692;2022-11-20T07:11:24;10.77;;;6.78;;
41925;SDS011;27615;51.826;5.692;2022-11-20T07:13:50;9.25;;;6.05;;
41925;SDS011;27615;51.826;5.692;2022-11-20T07:16:15;10.23;;;6.60;;
41925;SDS011;27615;51.826;5.692;2022-11-20T07:18:41;10.27;;;6.72;;
41925;SDS011;27615;51.826;5.692;2022-11-20T07:21:07;10.45;;;6.43;;
41925;SDS011;27615;51.826;5.692;2022-11-20T07:23:34;11.00;;;6.38;;
41925;SDS011;27615;51.826;5.692;2022-11-20T07:26:07;12.98;;;7.68;;
41925;SDS011;27615;51.826;5.692;2022-11-20T07:28:34;11.18;;;6.68;;
41925;SDS011;27615;51.826;5.692;2022-11-20T07:31:00;13.32;;;7.45;;
41925;SDS011;27615;51.826;5.692;2022-11-20T07:33:26;11.10;;;7.07;;
41925;SDS011;27615;51.826;5.692;2022-11-20T07:35:52;10.40;;;7.07;;
41925;SDS011;27615;51.826;5.692;2022-11-20T07:38:17;11.95;;;7.20;;
41925;SDS011;27615;51.826;5.692;2022-11-20T07:40:43;11.30;;;7.25;;
41925;SDS011;27615;51.826;5.692;2022-11-20T07:43:08;12.38;;;7.32;;
41925;SDS011;27615;51.826;5.692;2022-11-20T07:45:34;14.30;;;8.63;;
41925;SDS011;27615;51.826;5.692;2022-11-20T07:48:00;11.50;;;7.40;;
41925;SDS011;27615;51.826;5.692;2022-11-20T07:50:25;16.50;;;8.00;;
41925;SDS011;27615;51.826;5.692;2022-11-20T07:52:51;11.38;;;7.43;;
41925;SDS011;27615;51.826;5.692;2022-11-20T07:55:17;12.25;;;7.70;;
41925;SDS011;27615;51.826;5.692;2022-11-20T07:57:42;11.60;;;7.28;;
41925;SDS011;27615;51.826;5.692;2022-11-20T08:00:09;14.55;;;8.10;;
41925;SDS011;27615;51.826;5.692;2022-11-20T08:02:39;16.25;;;9.23;;
41925;SDS011;27615;51.826;5.692;2022-11-20T08:05:06;14.20;;;8.82;;
41925;SDS011;27615;51.826;5.692;2022-11-20T08:07:36;15.98;;;9.55;;
41925;SDS011;27615;51.826;5.692;2022-11-20T08:10:06;20.27;;;11.68;;
41925;SDS011;27615;51.826;5.692;2022-11-20T08:12:32;18.02;;;10.93;;
41925;SDS011;27615;51.826;5.692;2022-11-20T08:15:17;19.02;;;9.82;;
41925;SDS011;27615;51.826;5.692;2022-11-20T08:17:42;15.57;;;9.50;;
41925;SDS011;27615;51.826;5.692;2022-11-20T08:20:08;16.50;;;9.55;;
41925;SDS011;27615;51.826;5.692;2022-11-20T08:22:34;25.00;;;14.52;;
41925;SDS011;27615;51.826;5.692;2022-11-20T08:24:59;24.73;;;14.45;;
41925;SDS011;27615;51.826;5.692;2022-11-20T08:27:25;24.73;;;14.93;;
41925;SDS011;27615;51.826;5.692;2022-11-20T08:29:50;23.75;;;14.32;;
41925;SDS011;27615;51.826;5.692;2022-11-20T08:32:16;23.70;;;14.85;;
41925;SDS011;27615;51.826;5.692;2022-11-20T08:34:41;24.45;;;15.18;;
41925;SDS011;27615;51.826;5.692;2022-11-20T08:37:07;25.20;;;14.85;;
41925;SDS011;27615;51.826;5.692;2022-11-20T08:39:32;30.27;;;16.88;;
41925;SDS011;27615;51.826;5.692;2022-11-20T08:41:58;29.58;;;17.65;;
41925;SDS011;27615;51.826;5.692;2022-11-20T08:44:23;32.72;;;20.52;;
41925;SDS011;27615;51.826;5.692;2022-11-20T08:46:49;29.17;;;18.02;;
41925;SDS011;27615;51.826;5.692;2022-11-20T08:49:14;29.92;;;16.88;;
41925;SDS011;27615;51.826;5.692;2022-11-20T08:51:41;28.92;;;17.45;;
41925;SDS011;27615;51.826;5.692;2022-11-20T08:54:07;27.48;;;16.92;;
41925;SDS011;27615;51.826;5.692;2022-11-20T08:56:32;26.02;;;15.65;;
41925;SDS011;27615;51.826;5.692;2022-11-20T08:58:58;26.25;;;15.95;;
41925;SDS011;27615;51.826;5.692;2022-11-20T09:01:24;24.23;;;14.15;;
41925;SDS011;27615;51.826;5.692;2022-11-20T09:03:50;32.30;;;18.75;;
41925;SDS011;27615;51.826;5.692;2022-11-20T09:06:16;30.73;;;18.98;;
41925;SDS011;27615;51.826;5.692;2022-11-20T09:08:41;31.80;;;19.25;;
41925;SDS011;27615;51.826;5.692;2022-11-20T09:11:07;32.92;;;21.17;;
41925;SDS011;27615;51.826;5.692;2022-11-20T09:13:34;36.95;;;21.10;;
41925;SDS011;27615;51.826;5.692;2022-11-20T09:16:04;31.60;;;18.70;;
41925;SDS011;27615;51.826;5.692;2022-11-20T09:18:32;30.23;;;19.17;;
41925;SDS011;27615;51.826;5.692;2022-11-20T09:20:59;35.50;;;20.05;;
41925;SDS011;27615;51.826;5.692;2022-11-20T09:23:26;36.60;;;20.33;;
41925;SDS011;27615;51.826;5.692;2022-11-20T09:25:52;32.20;;;20.23;;
41925;SDS011;27615;51.826;5.692;2022-11-20T09:28:20;33.08;;;20.30;;
41925;SDS011;27615;51.826;5.692;2022-11-20T09:30:45;32.08;;;18.80;;
41925;SDS011;27615;51.826;5.692;2022-11-20T09:33:11;29.73;;;18.48;;
41925;SDS011;27615;51.826;5.692;2022-11-20T09:35:36;35.72;;;21.77;;
41925;SDS011;27615;51.826;5.692;2022-11-20T09:38:07;34.03;;;21.63;;
41925;SDS011;27615;51.826;5.692;2022-11-20T09:40:36;35.53;;;21.40;;
41925;SDS011;27615;51.826;5.692;2022-11-20T09:43:10;35.30;;;21.77;;
41925;SDS011;27615;51.826;5.692;2022-11-20T09:48:56;33.90;;;22.25;;
41925;SDS011;27615;51.826;5.692;2022-11-20T09:54:29;32.78;;;20.83;;
41925;SDS011;27615;51.826;5.692;2022-11-20T09:57:14;32.70;;;20.80;;
41925;SDS011;27615;51.826;5.692;2022-11-20T10:04:53;34.97;;;21.83;;
41925;SDS011;27615;51.826;5.692;2022-11-20T10:10:43;35.20;;;23.10;;
41925;SDS011;27615;51.826;5.692;2022-11-20T10:13:30;33.45;;;21.48;;
41925;SDS011;27615;51.826;5.692;2022-11-20T10:24:23;41.42;;;23.50;;
41925;SDS011;27615;51.826;5.692;2022-11-20T10:29:57;37.15;;;23.92;;
41925;SDS011;27615;51.826;5.692;2022-11-20T10:32:34;38.42;;;23.98;;
41925;SDS011;27615;51.826;5.692;2022-11-20T10:35:14;43.50;;;23.77;;
41925;SDS011;27615;51.826;5.692;2022-11-20T10:37:47;38.15;;;25.25;;
41925;SDS011;27615;51.826;5.692;2022-11-20T10:40:35;41.63;;;24.42;;
41925;SDS011;27615;51.826;5.692;2022-11-20T10:46:00;41.65;;;24.80;;
41925;SDS011;27615;51.826;5.692;2022-11-20T10:48:33;39.05;;;24.52;;
41925;SDS011;27615;51.826;5.692;2022-11-20T10:55:05;36.95;;;22.70;;
41925;SDS011;27615;51.826;5.692;2022-11-20T10:57:25;40.55;;;24.42;;
41925;SDS011;27615;51.826;5.692;2022-11-20T11:00:16;39.25;;;25.45;;
41925;SDS011;27615;51.826;5.692;2022-11-20T11:02:49;38.78;;;23.42;;
41925;SDS011;27615;51.826;5.692;2022-11-20T11:05:24;31.60;;;20.40;;
41925;SDS011;27615;51.826;5.692;2022-11-20T11:08:08;40.00;;;25.27;;
41925;SDS011;27615;51.826;5.692;2022-11-20T11:10:57;47.28;;;27.17;;
41925;SDS011;27615;51.826;5.692;2022-11-20T11:13:27;37.70;;;24.48;;
41925;SDS011;27615;51.826;5.692;2022-11-20T11:15:54;34.65;;;20.85;;
41925;SDS011;27615;51.826;5.692;2022-11-20T11:18:26;31.90;;;20.33;;
41925;SDS011;27615;51.826;5.692;2022-11-20T11:21:02;34.90;;;22.15;;
41925;SDS011;27615;51.826;5.692;2022-11-20T11:23:39;38.50;;;23.73;;
41925;SDS011;27615;51.826;5.692;2022-11-20T11:26:07;36.65;;;23.70;;
41925;SDS011;27615;51.826;5.692;2022-11-20T11:31:23;36.65;;;23.58;;
41925;SDS011;27615;51.826;5.692;2022-11-20T11:36:41;35.78;;;21.77;;
41925;SDS011;27615;51.826;5.692;2022-11-20T11:39:17;33.75;;;21.13;;
41925;SDS011;27615;51.826;5.692;2022-11-20T11:41:45;35.42;;;23.50;;
41925;SDS011;27615;51.826;5.692;2022-11-20T11:47:00;35.28;;;23.50;;
41925;SDS011;27615;51.826;5.692;2022-11-20T11:49:28;39.40;;;25.27;;
41925;SDS011;27615;51.826;5.692;2022-11-20T11:54:45;38.13;;;23.95;;
41925;SDS011;27615;51.826;5.692;2022-11-20T11:57:21;39.10;;;24.60;;
41925;SDS011;27615;51.826;5.692;2022-11-20T12:02:47;39.95;;;24.23;;
41925;SDS011;27615;51.826;5.692;2022-11-20T12:05:36;41.65;;;24.38;;
41925;SDS011;27615;51.826;5.692;2022-11-20T12:11:04;47.85;;;28.75;;
41925;SDS011;27615;51.826;5.692;2022-11-20T12:13:53;50.72;;;28.35;;
41925;SDS011;27615;51.826;5.692;2022-11-20T12:16:23;50.95;;;29.73;;
41925;SDS011;27615;51.826;5.692;2022-11-20T12:18:50;47.58;;;30.88;;
41925;SDS011;27615;51.826;5.692;2022-11-20T12:29:13;49.58;;;28.45;;
41925;SDS011;27615;51.826;5.692;2022-11-20T12:49:56;61.38;;;32.83;;
41925;SDS011;27615;51.826;5.692;2022-11-20T12:52:38;58.55;;;30.30;;
41925;SDS011;27615;51.826;5.692;2022-11-20T12:55:23;58.60;;;30.85;;
41925;SDS011;27615;51.826;5.692;2022-11-20T13:01:16;45.10;;;25.35;;
41925;SDS011;27615;51.826;5.692;2022-11-20T13:06:44;44.28;;;25.23;;
41925;SDS011;27615;51.826;5.692;2022-11-20T13:09:11;46.45;;;28.63;;
41925;SDS011;27615;51.826;5.692;2022-11-20T13:11:51;52.15;;;29.05;;
41925;SDS011;27615;51.826;5.692;2022-11-20T13:14:30;52.80;;;30.50;;
41925;SDS011;27615;51.826;5.692;2022-11-20T13:17:32;48.40;;;27.63;;
41925;SDS011;27615;51.826;5.692;2022-11-20T13:20:05;49.40;;;27.27;;
41925;SDS011;27615;51.826;5.692;2022-11-20T13:22:47;47.45;;;27.00;;
41925;SDS011;27615;51.826;5.692;2022-11-20T13:25:26;45.60;;;26.33;;
41925;SDS011;27615;51.826;5.692;2022-11-20T13:27:53;49.25;;;27.55;;
41925;SDS011;27615;51.826;5.692;2022-11-20T13:30:20;45.20;;;26.75;;
41925;SDS011;27615;51.826;5.692;2022-11-20T13:35:27;47.42;;;28.55;;
41925;SDS011;27615;51.826;5.692;2022-11-20T13:40:33;46.75;;;26.63;;
41925;SDS011;27615;51.826;5.692;2022-11-20T13:45:54;48.55;;;27.17;;
41925;SDS011;27615;51.826;5.692;2022-11-20T13:48:26;37.75;;;23.13;;
41925;SDS011;27615;51.826;5.692;2022-11-20T13:50:59;48.40;;;27.20;;
41925;SDS011;27615;51.826;5.692;2022-11-20T14:02:12;45.88;;;26.48;;
41925;SDS011;27615;51.826;5.692;2022-11-20T14:04:42;44.67;;;26.35;;
41925;SDS011;27615;51.826;5.692;2022-11-20T14:07:10;47.42;;;26.83;;
41925;SDS011;27615;51.826;5.692;2022-11-20T14:09:36;39.67;;;23.88;;
41925;SDS011;27615;51.826;5.692;2022-11-20T14:12:02;47.30;;;26.98;;
41925;SDS011;27615;51.826;5.692;2022-11-20T14:14:29;43.83;;;24.10;;
41925;SDS011;27615;51.826;5.692;2022-11-20T14:19:45;47.78;;;26.17;;
41925;SDS011;27615;51.826;5.692;2022-11-20T14:24:46;44.88;;;25.33;;
41925;SDS011;27615;51.826;5.692;2022-11-20T14:27:14;45.00;;;26.02;;
41925;SDS011;27615;51.826;5.692;2022-11-20T14:29:49;47.08;;;25.75;;
41925;SDS011;27615;51.826;5.692;2022-11-20T14:32:16;50.47;;;27.55;;
41925;SDS011;27615;51.826;5.692;2022-11-20T14:34:44;52.47;;;26.73;;
41925;SDS011;27615;51.826;5.692;2022-11-20T14:37:13;50.75;;;26.23;;
41925;SDS011;27615;51.826;5.692;2022-11-20T14:39:48;59.00;;;29.77;;
41925;SDS011;27615;51.826;5.692;2022-11-20T14:44:47;58.42;;;28.30;;
41925;SDS011;27615;51.826;5.692;2022-11-20T14:47:15;55.03;;;27.65;;
41925;SDS011;27615;51.826;5.692;2022-11-20T14:49:54;56.30;;;28.98;;
41925;SDS011;27615;51.826;5.692;2022-11-20T14:52:21;52.65;;;28.55;;
41925;SDS011;27615;51.826;5.692;2022-11-20T14:54:49;49.53;;;28.67;;
41925;SDS011;27615;51.826;5.692;2022-11-20T15:02:38;60.03;;;28.58;;
41925;SDS011;27615;51.826;5.692;2022-11-20T15:05:07;66.22;;;32.95;;
41925;SDS011;27615;51.826;5.692;2022-11-20T15:07:35;52.90;;;29.25;;
41925;SDS011;27615;51.826;5.692;2022-11-20T15:10:03;64.97;;;31.30;;
41925;SDS011;27615;51.826;5.692;2022-11-20T15:12:31;59.07;;;31.50;;
41925;SDS011;27615;51.826;5.692;2022-11-20T15:14:58;62.00;;;31.10;;
41925;SDS011;27615;51.826;5.692;2022-11-20T15:17:25;61.00;;;32.65;;
41925;SDS011;27615;51.826;5.692;2022-11-20T15:19:51;64.70;;;32.85;;
41925;SDS011;27615;51.826;5.692;2022-11-20T15:22:17;67.03;;;32.80;;
41925;SDS011;27615;51.826;5.692;2022-11-20T15:24:43;65.75;;;33.53;;
41925;SDS011;27615;51.826;5.692;2022-11-20T15:27:10;63.75;;;32.75;;
41925;SDS011;27615;51.826;5.692;2022-11-20T15:29:35;60.80;;;30.38;;
41925;SDS011;27615;51.826;5.692;2022-11-20T15:32:01;65.20;;;33.55;;
41925;SDS011;27615;51.826;5.692;2022-11-20T15:34:26;58.85;;;30.63;;
41925;SDS011;27615;51.826;5.692;2022-11-20T15:36:52;58.20;;;29.67;;
41925;SDS011;27615;51.826;5.692;2022-11-20T15:39:19;65.28;;;32.95;;
41925;SDS011;27615;51.826;5.692;2022-11-20T15:41:45;63.30;;;31.58;;
41925;SDS011;27615;51.826;5.692;2022-11-20T15:44:11;50.22;;;26.08;;
41925;SDS011;27615;51.826;5.692;2022-11-20T15:46:37;54.08;;;28.48;;
41925;SDS011;27615;51.826;5.692;2022-11-20T15:49:10;54.00;;;27.42;;
41925;SDS011;27615;51.826;5.692;2022-11-20T15:51:39;53.83;;;27.15;;
41925;SDS011;27615;51.826;5.692;2022-11-20T15:54:11;43.03;;;23.13;;
41925;SDS011;27615;51.826;5.692;2022-11-20T15:56:42;48.17;;;25.35;;
41925;SDS011;27615;51.826;5.692;2022-11-20T15:59:08;47.63;;;24.05;;
41925;SDS011;27615;51.826;5.692;2022-11-20T16:01:34;45.17;;;24.73;;
41925;SDS011;27615;51.826;5.692;2022-11-20T16:04:00;43.13;;;23.95;;
41925;SDS011;27615;51.826;5.692;2022-11-20T16:06:25;48.28;;;25.45;;
41925;SDS011;27615;51.826;5.692;2022-11-20T16:08:51;47.15;;;24.55;;
41925;SDS011;27615;51.826;5.692;2022-11-20T16:11:16;47.75;;;24.27;;
41925;SDS011;27615;51.826;5.692;2022-11-20T16:13:42;46.95;;;23.83;;
41925;SDS011;27615;51.826;5.692;2022-11-20T16:16:31;50.10;;;27.88;;
41925;SDS011;27615;51.826;5.692;2022-11-20T16:19:00;46.47;;;25.73;;
41925;SDS011;27615;51.826;5.692;2022-11-20T16:21:26;44.50;;;24.80;;
41925;SDS011;27615;51.826;5.692;2022-11-20T16:23:56;49.78;;;26.30;;
41925;SDS011;27615;51.826;5.692;2022-11-20T16:26:26;52.15;;;27.75;;
41925;SDS011;27615;51.826;5.692;2022-11-20T16:28:52;50.90;;;26.83;;
41925;SDS011;27615;51.826;5.692;2022-11-20T16:31:18;52.97;;;26.80;;
41925;SDS011;27615;51.826;5.692;2022-11-20T16:33:51;44.83;;;23.27;;
41925;SDS011;27615;51.826;5.692;2022-11-20T16:36:18;40.05;;;22.42;;
41925;SDS011;27615;51.826;5.692;2022-11-20T16:38:44;44.08;;;23.58;;
41925;SDS011;27615;51.826;5.692;2022-11-20T16:41:10;38.80;;;20.65;;